Aérodrome :
LOGIN :

S'inscrire | Disclaimer

   EN    FR    IT 

 










Légende :    VFR   VFR Marginal   IFR   IFR Intensif   IFR Très Intensif
Visi : 
Plafond : 
>= 8 km
>= 3000ft
5 à 8 km
1000 à 3000 ft
1500m à 5 km
500 à 1000 ft
800 à 1500m
200 à 500 ft
< 800m
< 200 ft
Symboles :   Orages  Brouillard  Fortes neiges  Fortes précipitations  Vent > 20 kt
SIGMETs :   Divers  Orages  Givrage  Turbulence  Onde Orograph.  Cendres Volcan.






- Altitude de l'aérodrome : 296 ft
- Code IATA : GKE


ETNG - Geilenkirchen

DERNIER METAR :
  • 030650Z 07004KT 9999 -RA FEW008 BKN050 BKN070 14/13 Q1013 TEMPO 4500 RA

METARs EXPIRÉS :
  • 030550Z 02001KT 9999 -RADZ FEW045 BKN060 13/13 Q1013 TEMPO 4500 RA
  • 030450Z 09002KT 9999 -RADZ BKN060 13/13 Q1013 TEMPO 5000 RA

TAF TAF ETNG
Valide du 03 à 06h jusqu'au 03 à 21h UTC


030500Z 0306/0321 VRB03KT 9999 BKN045
TEMPO 0306/0311 4500 RA BKN015
BECMG 0310/0312 33005KT BKN020
PROB40
TEMPO 0310/0318 4500 SHRA TSRA BKN015CB
BECMG 0318/0320 VRB02KT SCT025 SCT070



MET'MAP, la Météo Aéronautique d'un coup d'oeil ! - Copyright ORBIFLY Décembre 2007 - Disclaimer

ORBIFLY MET'MAP TEAM :

Programmation & Développement : Alexandra Zaïnal
Sur une idée originale de : Baudouin d'Aumeries
Assistance à la programmation : Marc-Olivier Méhu
Soutien technique & logistique : Manuel Goepfert

Contact : metmap@orbifly.com




SOURCES & CREDITS :

   NOAA